Roxbury, Kansas
Current Conditions -  °F | °C
As of 1:53 PM on Monday 22 Dec 2014 (Local Time) from KSLN Reporting Station
Broken Clouds Broken Clouds  
Wind Chill: 52°   Ceiling: 5500
Heat Index: 52°   Visibility: 10mi
Dew Point: 36°   Wind: 20mph
Humidity: 54%   Direction: 310°NW
Pressure: 29.51"   Gusts: 29mph
Location:  38.55°N, 97.43°W
Report Text: KSLN 221953Z 31017G25KT 10SM SCT038 BKN055 11/02 A2951 RMK AO2 PK WND 30027/1919 SLP992 T01110022
Loading
Personal Weather Stations






























Interactive Weather Map New forecast layout! Learn more

10-Day Weather Forecast

Advertisements
Track Severe Weather on mobile